Airfield :







YOU CAN JOIN US ON...

 
LOGIN :

Register | Disclaimer

   EN    FR    IT 

 









Legend :    VFR   Marginal VFR   IFR   Intensive IFR   Very Intensive IFR
Visi :
Ceiling :
>= 8 km
>= 3000ft
5 to 8 km
1000 to 3000 ft
1500m to 5 km
500 to 1000 ft
800 to 1500m
200 to 500 ft
< 800m
< 200 ft
Symbols :   Thunderstorms  Fog  Heavy snow  Heavy precipitations  Wind > 20 kt






- Airport Elevation : 160 ft
- IATA code : YYR


CYYR - Goose Bay

CURRENT METAR :
  • 120600Z 26026G34KT 15SM DRSN SKC M21/M28 A2997 RMK SLP154

EXPIRED METARs :
  • 120500Z 26024G31KT 15SM DRSN SKC M20/M27 A2997 RMK SLP154
  • 120400Z 26025G30KT 15SM DRSN SKC M20/M27 A2998 RMK SLP157

TAF TAF CYYR
Valid from the 12 at 06:00 until the 13 at 06:00 UTC


120530Z 1206/1306 26020G30KT P6SM FEW150
BECMG 1207/1209 26015G25KT
BECMG 1214/1216 26010G20KT
FM121600 26010G20KT P6SM SCT090
FM122200 26015G25KT P6SM FEW020 BKN030 RMK NXT FCST BY 121200Z



MET'MAP, your aeronautical weather chart ! - Copyright ORBIFLY December 2007 - Disclaimer

ORBIFLY MET'MAP TEAM :

Programming & Development : Alexandra Zaïnal
Concept & original design : Baudouin d'Aumeries
Assistance for programming : Marc-Olivier Méhu
Technical & hardware support : Manuel Goepfert

Contact : metmap@orbifly.com




SOURCES & CREDITS :

   NOAA